| time (UTC) | temp C | wind direction | speed KPH | gust KPH | rain 1hr cm | rain 24hr cm | rain mn cm | humidity % | barometer mb |
| 20260507140408 | 12 | 0 | 0.0 | 0.0 | 0.00 | 0.18 | 0.20 | 66 | 1013.9 |
| 20260507134941 | 12 | 0 | 0.0 | 0.0 | 0.00 | 0.18 | 0.20 | 68 | 1013.9 |
| 20260507134210 | 12 | 0 | 0.0 | 0.0 | 0.00 | 0.18 | 0.20 | 70 | 1014.1 |
| 20260507133729 | 12 | 0 | 0.0 | 0.0 | 0.00 | 0.18 | 0.20 | 70 | 1014.1 |
| 20260507132346 | 12 | 0 | 0.0 | 0.0 | 0.00 | 0.18 | 0.20 | 70 | 1013.8 |
| 20260507131508 | 11 | 0 | 0.0 | 0.0 | 0.00 | 0.18 | 0.20 | 77 | 1013.7 |
| 20260507131126 | 11 | 0 | 0.0 | 0.0 | 0.00 | 0.18 | 0.20 | 77 | 1013.7 |
| 20260507125941 | 11 | 0 | 0.0 | 0.0 | 0.00 | 0.18 | 0.20 | 80 | 1013.7 |
| 20260507125631 | 11 | 0 | 0.0 | 0.0 | 0.00 | 0.18 | 0.20 | 80 | 1013.7 |
| 20260507124911 | 11 | 0 | 0.0 | 0.0 | 0.00 | 0.18 | 0.20 | 84 | 1013.8 |
| 20260507124131 | 11 | 0 | 0.0 | 0.0 | 0.00 | 0.18 | 0.20 | 84 | 1013.8 |
| 20260507123035 | 11 | 0 | 0.0 | 0.0 | 0.00 | 0.18 | 0.20 | 84 | 1013.8 |
| 20260507122831 | 11 | 0 | 0.0 | 0.0 | 0.00 | 0.18 | 0.20 | 84 | 1013.8 |
| 20260507121406 | 11 | 0 | 0.0 | 0.0 | 0.00 | 0.18 | 0.20 | 84 | 1013.8 |
| 20260507115941 | 11 | 0 | 0.0 | 0.0 | 0.00 | 0.18 | 0.20 | 85 | 1013.7 |
| 20260507114636 | 11 | 0 | 0.0 | 0.0 | 0.00 | 0.18 | 0.20 | 86 | 1013.4 |
| 20260507113216 | 11 | 0 | 0.0 | 0.0 | 0.00 | 0.18 | 0.20 | 88 | 1013.3 |
| 20260507111726 | 11 | 0 | 0.0 | 4.8 | 0.00 | 0.18 | 0.20 | 89 | 1013.1 |
| 20260507110456 | 11 | 0 | 0.0 | 0.0 | 0.00 | 0.18 | 0.20 | 90 | 1013.1 |
| 20260507105358 | 12 | 0 | 0.0 | 0.0 | 0.00 | 0.18 | 0.20 | 91 | 1013.2 |
| 20260507105256 | 12 | 0 | 0.0 | 0.0 | 0.00 | 0.18 | 0.20 | 91 | 1013.2 |
| 20260507103841 | 11 | 0 | 0.0 | 0.0 | 0.00 | 0.18 | 0.20 | 91 | 1012.9 |
| 20260507102517 | 11 | 0 | 0.0 | 0.0 | 0.00 | 0.18 | 0.20 | 90 | 1012.8 |
| 20260507101051 | 11 | 0 | 0.0 | 0.0 | 0.00 | 0.18 | 0.20 | 90 | 1012.9 |
| 20260507095920 | 11 | 0 | 0.0 | 0.0 | 0.00 | 0.18 | 0.20 | 91 | 1012.6 |
| 20260507095831 | 11 | 0 | 0.0 | 0.0 | 0.00 | 0.18 | 0.20 | 91 | 1012.6 |
| 20260507094616 | 11 | 0 | 0.0 | 0.0 | 0.00 | 0.18 | 0.20 | 91 | 1012.7 |
| 20260507093246 | 11 | 0 | 0.0 | 0.0 | 0.00 | 0.18 | 0.20 | 91 | 1012.6 |
| 20260507091901 | 12 | 0 | 0.0 | 0.0 | 0.00 | 0.18 | 0.20 | 91 | 1012.3 |
| 20260507090421 | 12 | 0 | 0.0 | 0.0 | 0.00 | 0.18 | 0.20 | 91 | 1012.5 |
| 20260507085354 | 12 | 0 | 0.0 | 0.0 | 0.00 | 0.18 | 0.20 | 90 | 1012.4 |
| 20260507084931 | 12 | 0 | 0.0 | 0.0 | 0.00 | 0.18 | 0.20 | 90 | 1012.4 |
| 20260507083839 | 12 | 0 | 0.0 | 0.0 | 0.00 | 0.18 | 0.20 | 90 | 1012.4 |
| 20260507083806 | 12 | 0 | 0.0 | 0.0 | 0.00 | 0.18 | 0.20 | 90 | 1012.4 |
| 20260507083731 | 12 | 0 | 0.0 | 0.0 | 0.00 | 0.18 | 0.20 | 90 | 1012.4 |
| 20260507082307 | 12 | 0 | 0.0 | 0.0 | 0.00 | 0.18 | 0.20 | 90 | 1012.2 |
| 20260507081101 | 12 | 0 | 0.0 | 0.0 | 0.03 | 0.18 | 0.20 | 90 | 1011.9 |
| 20260507075741 | 12 | 0 | 0.0 | 0.0 | 0.03 | 0.18 | 0.20 | 90 | 1011.6 |
| 20260507074536 | 12 | 0 | 0.0 | 0.0 | 0.03 | 0.18 | 0.20 | 90 | 1011.6 |
| 20260507073106 | 12 | 0 | 0.0 | 0.0 | 0.03 | 0.18 | 0.20 | 90 | 1011.4 |
| 20260507071816 | 12 | 0 | 0.0 | 4.8 | 0.03 | 0.18 | 0.20 | 91 | 1011.5 |
| 20260507070601 | 13 | 0 | 0.0 | 0.0 | 0.00 | 0.15 | 0.18 | 91 | 1011.4 |
| 20260507065331 | 13 | 0 | 0.0 | 0.0 | 0.00 | 0.15 | 0.18 | 91 | 1011.4 |
| 20260507063931 | 13 | 0 | 0.0 | 0.0 | 0.00 | 0.15 | 0.18 | 90 | 1011.7 |
| 20260507062648 | 13 | 0 | 0.0 | 0.0 | 0.00 | 0.15 | 0.18 | 90 | 1011.5 |
| 20260507061348 | 13 | 0 | 0.0 | 0.0 | 0.03 | 0.15 | 0.18 | 90 | 1011.4 |
| 20260507060101 | 13 | 0 | 0.0 | 0.0 | 0.03 | 0.15 | 0.18 | 89 | 1011.4 |
| 20260507054726 | 13 | 0 | 0.0 | 0.0 | 0.10 | 0.15 | 0.18 | 89 | 1011.2 |
| 20260507053336 | 13 | 0 | 0.0 | 0.0 | 0.15 | 0.15 | 0.18 | 88 | 1011.6 |
| 20260507052058 | 13 | 0 | 0.0 | 0.0 | 0.15 | 0.15 | 0.18 | 87 | 1011.2 |
| 20260507051946 | 13 | 0 | 0.0 | 0.0 | 0.15 | 0.15 | 0.18 | 87 | 1011.2 |
| 20260507050551 | 14 | 0 | 0.0 | 0.0 | 0.15 | 0.15 | 0.15 | 86 | 1011.5 |
| 20260507045443 | 15 | 0 | 0.0 | 0.0 | 0.10 | 0.10 | 0.13 | 83 | 1012.0 |
| 20260507045254 | 15 | 0 | 0.0 | 0.0 | 0.10 | 0.10 | 0.13 | 83 | 1012.0 |
| 20260507044036 | 15 | 0 | 0.0 | 0.0 | 0.08 | 0.08 | 0.08 | 81 | 1011.5 |
| 20260507042639 | 16 | 0 | 0.0 | 0.0 | 0.00 | 0.00 | 0.00 | 78 | 1011.8 |
| 20260507042541 | 16 | 0 | 0.0 | 0.0 | 0.00 | 0.00 | 0.00 | 78 | 1011.8 |
| 20260507041232 | 16 | 0 | 0.0 | 0.0 | 0.00 | 0.00 | 0.00 | 77 | 1011.5 |
| 20260507035951 | 16 | 0 | 0.0 | 0.0 | 0.00 | 0.00 | 0.00 | 77 | 1011.3 |
| 20260507034511 | 17 | 0 | 0.0 | 0.0 | 0.00 | 0.00 | 0.00 | 76 | 1010.9 |
| 20260507033245 | 17 | 0 | 0.0 | 0.0 | 0.00 | 0.00 | 0.00 | 76 | 1011.0 |
| 20260507033211 | 17 | 0 | 0.0 | 0.0 | 0.00 | 0.00 | 0.00 | 76 | 1011.0 |
| 20260507032006 | 17 | 0 | 0.0 | 0.0 | 0.00 | 0.00 | 0.00 | 75 | 1011.1 |
| 20260507030641 | 17 | 0 | 0.0 | 0.0 | 0.00 | 0.00 | 0.00 | 75 | 1010.6 |
| 20260507025442 | 17 | 0 | 0.0 | 0.0 | 0.00 | 0.00 | 0.00 | 75 | 1010.5 |
| 20260507025339 | 17 | 0 | 0.0 | 0.0 | 0.00 | 0.00 | 0.00 | 75 | 1010.5 |
| 20260507024036 | 17 | 0 | 0.0 | 0.0 | 0.00 | 0.00 | 0.00 | 76 | 1010.7 |
| 20260507022801 | 18 | 0 | 0.0 | 0.0 | 0.00 | 0.00 | 0.00 | 77 | 1010.3 |
| 20260507021438 | 18 | 0 | 0.0 | 0.0 | 0.00 | 0.00 | 0.00 | 77 | 1010.4 |
| 20260507015956 | 18 | 0 | 0.0 | 0.0 | 0.00 | 0.00 | 0.00 | 78 | 1010.2 |
| 20260507014702 | 18 | 0 | 0.0 | 0.0 | 0.00 | 0.00 | 0.00 | 78 | 1010.0 |
| 20260507013451 | 19 | 0 | 0.0 | 0.0 | 0.00 | 0.00 | 0.00 | 80 | 1010.3 |
| 20260507012006 | 19 | 0 | 0.0 | 0.0 | 0.00 | 0.00 | 0.00 | 81 | 1010.2 |
| 20260507010634 | 20 | 0 | 0.0 | 0.0 | 0.00 | 0.00 | 0.00 | 81 | 1010.0 |
| 20260507005246 | 20 | 0 | 0.0 | 0.0 | 0.00 | 0.00 | 0.00 | 80 | 1010.2 |
| 20260507004026 | 20 | 0 | 0.0 | 0.0 | 0.00 | 0.00 | 0.00 | 80 | 1009.9 |
| 20260507002551 | 20 | 0 | 0.0 | 0.0 | 0.00 | 0.00 | 0.00 | 80 | 1009.9 |
| 20260507001326 | 20 | 0 | 0.0 | 0.0 | 0.00 | 0.00 | 0.00 | 79 | 1009.6 |
| 20260507000139 | 20 | 0 | 0.0 | 0.0 | 0.00 | 0.00 | 0.00 | 78 | 1009.7 |
| 20260507000056 | 20 | 0 | 0.0 | 0.0 | 0.00 | 0.00 | 0.00 | 78 | 1009.7 |
| 20260506234707 | 20 | 0 | 0.0 | 0.0 | 0.00 | 0.00 | 0.00 | 78 | 1009.6 |
| 20260506233316 | 20 | 0 | 0.0 | 0.0 | 0.00 | 0.00 | 0.00 | 77 | 1009.2 |
| 20260506232114 | 20 | 0 | 0.0 | 0.0 | 0.00 | 0.00 | 0.00 | 77 | 1009.3 |
| 20260506231023 | 20 | 0 | 0.0 | 6.4 | 0.00 | 0.00 | 0.00 | 77 | 1009.1 |
| 20260506230856 | 20 | 0 | 0.0 | 6.4 | 0.00 | 0.00 | 0.00 | 77 | 1009.1 |
| 20260506225431 | 20 | 0 | 0.0 | 0.0 | 0.00 | 0.00 | 0.00 | 77 | 1008.9 |
| 20260506223956 | 20 | 0 | 0.0 | 14.5 | 0.00 | 0.00 | 0.00 | 76 | 1009.0 |
| 20260506222546 | 20 | 0 | 0.0 | 0.0 | 0.00 | 0.00 | 0.00 | 76 | 1008.8 |
| 20260506221301 | 21 | 208 | 11.3 | 11.3 | 0.00 | 0.00 | 0.00 | 76 | 1008.9 |
| 20260506215851 | 21 | 0 | 0.0 | 6.4 | 0.00 | 0.00 | 0.00 | 76 | 1008.8 |
| 20260506214421 | 21 | 227 | 3.2 | 9.7 | 0.00 | 0.00 | 0.00 | 75 | 1008.8 |
| 20260506213142 | 21 | 0 | 0.0 | 9.7 | 0.00 | 0.00 | 0.00 | 74 | 1008.8 |
| 20260506211757 | 21 | 0 | 0.0 | 19.3 | 0.00 | 0.00 | 0.00 | 74 | 1008.7 |
| 20260506210426 | 21 | 0 | 0.0 | 11.3 | 0.00 | 0.00 | 0.00 | 75 | 1008.6 |
| 20260506205057 | 21 | 0 | 0.0 | 4.8 | 0.00 | 0.00 | 0.00 | 75 | 1008.5 |
| 20260506204022 | 21 | 265 | 4.8 | 14.5 | 0.00 | 0.00 | 0.00 | 75 | 1008.3 |
| 20260506203646 | 21 | 265 | 4.8 | 14.5 | 0.00 | 0.00 | 0.00 | 75 | 1008.3 |
| 20260506202221 | 20 | 0 | 0.0 | 14.5 | 0.00 | 0.00 | 0.00 | 75 | 1008.6 |
| 20260506200741 | 21 | 213 | 8.0 | 17.7 | 0.00 | 0.00 | 0.00 | 75 | 1008.7 |
| 20260506195422 | 21 | 243 | 20.9 | 20.9 | 0.00 | 0.00 | 0.00 | 75 | 1008.6 |
| 20260506194335 | 21 | 198 | 6.4 | 14.5 | 0.00 | 0.00 | 0.00 | 74 | 1008.6 |
| 20260506194026 | 21 | 198 | 6.4 | 14.5 | 0.00 | 0.00 | 0.00 | 74 | 1008.6 |
| 20260506192616 | 21 | 205 | 4.8 | 19.3 | 0.00 | 0.00 | 0.00 | 75 | 1008.6 |
| 20260506191131 | 20 | 0 | 0.0 | 12.9 | 0.00 | 0.00 | 0.00 | 76 | 1008.8 |
| 20260506185921 | 20 | 213 | 4.8 | 16.1 | 0.00 | 0.00 | 0.00 | 78 | 1008.8 |
| 20260506184601 | 19 | 246 | 4.8 | 11.3 | 0.00 | 0.00 | 0.00 | 79 | 1008.9 |
| 20260506183341 | 19 | 0 | 0.0 | 8.0 | 0.00 | 0.00 | 0.00 | 78 | 1009.1 |
| 20260506182021 | 20 | 194 | 1.6 | 8.0 | 0.00 | 0.00 | 0.00 | 79 | 1009.3 |
| 20260506180546 | 19 | 230 | 4.8 | 4.8 | 0.00 | 0.00 | 0.00 | 82 | 1009.4 |
| 20260506175525 | 18 | 257 | 8.0 | 14.5 | 0.00 | 0.00 | 0.00 | 83 | 1009.5 |
| 20260506175316 | 18 | 257 | 8.0 | 14.5 | 0.00 | 0.00 | 0.00 | 83 | 1009.5 |
| 20260506174329 | 18 | 0 | 0.0 | 14.5 | 0.00 | 0.00 | 0.00 | 85 | 1009.6 |
| 20260506173856 | 18 | 0 | 0.0 | 14.5 | 0.00 | 0.00 | 0.00 | 85 | 1009.6 |
| 20260506173011 | 17 | 265 | 6.4 | 17.7 | 0.00 | 0.00 | 0.00 | 86 | 1009.6 |
| 20260506172431 | 17 | 265 | 6.4 | 17.7 | 0.00 | 0.00 | 0.00 | 86 | 1009.6 |
| 20260506171046 | 17 | 0 | 0.0 | 0.0 | 0.00 | 0.00 | 0.00 | 88 | 1009.7 |
| 20260506165836 | 17 | 144 | 6.4 | 22.5 | 0.00 | 0.00 | 0.00 | 89 | 1009.8 |
| 20260506164401 | 17 | 0 | 0.0 | 14.5 | 0.00 | 0.00 | 0.00 | 90 | 1009.8 |
| 20260506163116 | 16 | 0 | 0.0 | 16.1 | 0.00 | 0.00 | 0.00 | 91 | 1009.8 |
| 20260506161837 | 16 | 284 | 1.6 | 8.0 | 0.00 | 0.00 | 0.00 | 92 | 1009.8 |
| 20260506161117 | 16 | 228 | 9.7 | 14.5 | 0.00 | 0.00 | 0.00 | 92 | 1010.0 |
| 20260506160628 | 16 | 228 | 9.7 | 14.5 | 0.00 | 0.00 | 0.00 | 92 | 1010.0 |
| 20260506155752 | 16 | 182 | 9.7 | 20.9 | 0.00 | 0.00 | 0.00 | 92 | 1010.1 |
| 20260506155351 | 16 | 117 | 1.6 | 16.1 | 0.00 | 0.00 | 0.00 | 92 | 1010.1 |
| 20260506153941 | 16 | 182 | 9.7 | 20.9 | 0.00 | 0.00 | 0.00 | 92 | 1010.1 |
| 20260506153241 | 15 | 171 | 3.2 | 17.7 | 0.00 | 0.00 | 0.00 | 92 | 1010.3 |
| 20260506152736 | 15 | 171 | 3.2 | 17.7 | 0.00 | 0.00 | 0.00 | 92 | 1010.3 |
| 20260506151739 | 15 | 172 | 11.3 | 12.9 | 0.00 | 0.00 | 0.00 | 91 | 1010.3 |
| 20260506151516 | 15 | 172 | 11.3 | 12.9 | 0.00 | 0.00 | 0.00 | 91 | 1010.3 |
| 20260506150059 | 15 | 163 | 12.9 | 12.9 | 0.00 | 0.00 | 0.00 | 91 | 1010.7 |
| 20260506145323 | 15 | 0 | 0.0 | 16.1 | 0.00 | 0.00 | 0.00 | 91 | 1011.0 |
| 20260506144801 | 15 | 0 | 0.0 | 16.1 | 0.00 | 0.00 | 0.00 | 91 | 1011.0 |
| 20260506143311 | 15 | 0 | 0.0 | 11.3 | 0.00 | 0.00 | 0.00 | 91 | 1010.9 |
| 20260506142046 | 15 | 213 | 12.9 | 12.9 | 0.00 | 0.00 | 0.00 | 90 | 1011.0 |